AirNav   Textron
 
 529 users online  

CL35 Warner Springs Gliderport
Warner Springs, California, USA

GOING TO WARNER SPRINGS?


FAA INFORMATION EFFECTIVE 20 JULY 2017

Location

FAA Identifier: CL35
Lat/Long: 33-17-04.2100N / 116-40-10.7650W
33-17.070167N / 116-40.179417W
33.2845028 / -116.6696569
(estimated)
Elevation: 2880 ft. / 878 m (estimated)
Variation: 13E (1985)
From city: 2 miles E of WARNER SPRINGS, CA
Time zone: UTC -7 (UTC -8 during Standard Time)
Zip code: 92086

Gliderport Operations

Gliderport use: Private use. Permission required prior to landing
Activation date: 10/1984
Control tower: no
ARTCC: LOS ANGELES CENTER
FSS: SAN DIEGO FLIGHT SERVICE STATION
Attendance: 0900-1700
Wind indicator: yes
Segmented circle: yes
Landing fee: yes

Gliderport Communications

UNICOM: 122.8
WX AWOS-1 at L08 (18 nm E): 126.575 (760-767-3308)
WX ASOS at RNM (19 nm SW): 132.025 (760-789-0736)

Nearby radio navigation aids

VOR radial/distance  VOR name  Freq  Var
JLIr319/9.6JULIAN VORTAC114.0015E
TRMr218/32.8THERMAL VORTAC116.2013E
PSPr186/37.1PALM SPRINGS VORTAC115.5013E
OCNr071/37.6OCEANSIDE VORTAC115.3015E
HDFr125/(39.2)HOMELAND VOR113.4014E

Gliderport Services

Runway Information

Runway 8/26

Dimensions: 3500 x 70 ft. / 1067 x 21 m
Surface: asphalt
RUNWAY 8  RUNWAY 26
Latitude: 33-17.060333N33-17.080000N
Longitude: 116-40.522667W116-39.836167W
Elevation: 2873.0 ft.2914.0 ft.
Traffic pattern: leftleft
Obstructions: none200 ft. hill, 5200 ft. from runway

Gliderport Ownership and Management from official FAA records

Ownership: Privately-owned
Owner: WARNER SPRINGS RANCH RESORT, LLC
31930 HWY 79
WARNER SPRINGS, CA 92086
Phone 760-782-4200
SKY SAILING 31930 HWY 79.
Manager: BRET WILLAT
SKY SAILING 31930 HWY 79
WARNER SPRINGS, CA 92086
Phone 760-782-0404
LEASEE.

Gliderport Operational Statistics

Aircraft based on the field: 80
Single engine airplanes: 10
Gliders airplanes: 70
    

Instrument Procedures

There are no published instrument procedures at CL35.

Some nearby airports with instrument procedures:

L08 - Borrego Valley Airport (18 nm E)
KRNM - Ramona Airport (19 nm SW)
F70 - French Valley Airport (29 nm NW)
L18 - Fallbrook Community Airpark (29 nm W)
KSEE - Gillespie Field Airport (31 nm SW)
 
Loc | Ops | Rwys | IFR | FBO | Links
Com | Nav | Svcs | Stats | Notes


 
Area around CL35 (Warner Springs Gliderport)
 
Road maps at: MapQuest Bing Google
 
Aerial photo
WARNING: Photo may not be current or correct
Aerial photo of CL35 (Warner Springs Gliderport)
Photo by Steve Lupinacci
Photo taken 27-May-2008

Do you have a better or more recent aerial photo of Warner Springs Gliderport that you would like to share? If so, please send us your photo.

 
Sectional chart

 
Airport distance calculator
Flying to Warner Springs Gliderport? Find the distance to fly.

From to CL35

Sunrise and sunset
Times for 22-Jul-2017
 Local
(UTC-7)
 Zulu
(UTC)
Morning civil twilight05:2612:26
Sunrise05:5412:54
Sunset19:5202:52
Evening civil twilight20:2003:20

Current date and time
Zulu (UTC)  23-Jul-2017 04:47:50
Local (UTC-7)  22-Jul-2017 21:47:50
 
METAR
KRNM 
20nm SW 
230353Z AUTO 27005KT 10SM CLR 21/17 A2991 RMK AO2 SLP114 T02110167 $
KF70 
29nm NW 
230435Z AUTO 22004KT 10SM CLR 22/16 A2992 RMK AO1
KL18 
29nm W 
230435Z AUTO 25003KT 10SM CLR 19/17 A2991 RMK AO2
KSEE 
32nm SW 
230435Z AUTO 24003KT 10SM 22/17 A2991 RMK AO2
KCRQ 
32nm W 
230353Z AUTO 22005KT 10SM CLR 21/18 A2988 RMK AO2 SLP116 T02060178
KTRM 
33nm NE 
230352Z AUTO 27003KT 10SM CLR 34/18 A2967 RMK AO2 SLP049 T03440183
KPSP 
33nm N 
230353Z 28003KT 10SM CLR 39/14 A2974 RMK AO2 SLP067 T03890144
KNFG 
33nm W 
230355Z AUTO 00000KT 6SM HZ CLR 16/ A2988 RMK AO2 SLP118 T0161 $
KNKX 
34nm SW 
230355Z 23003KT 10SM FEW015 FEW100 22/16 A2990 RMK AO2 SLP117 T02220156 $
KOKB 
34nm W 
230352Z AUTO 21003KT 9SM CLR 22/18 A2988 RMK AO2 SLP116 T02170183
TAF
KCRQ 
32nm W 
230307Z 2303/2324 VRB04KT P6SM FEW015 FM230600 VRB04KT P6SM BKN010 FM231600 VRB04KT P6SM FEW015 FM232100 24008KT P6SM SCT150
KTRM 
33nm NE 
221720Z 2218/2318 VRB05KT P6SM SKC FM222000 14009KT P6SM SKC FM230100 VRB05KT P6SM SKC
KPSP 
33nm N 
230309Z 2303/2324 VRB05KT P6SM SKC FM232100 11008KT P6SM SCT150
KNFG 
33nm W 
2221/2321 22009KT 9999 SKC QNH2982INS FM230430 VRB05KT 9999 FEW015 QNH2986INS BECMG 2305/2307 VRB05KT 8000 BR OVC012 QNH2983INS BECMG 2315/2317 22008KT 9999 NSW FEW020 SCT150 QNH2983INS AUTOMATED SENSOR METWATCH 2221 TIL 2414 T22/2222Z T14/2313Z
KNKX 
34nm SW 
2221/2321 23008KT 9999 FEW015 QNH2985INS FM230430 VRB05KT 9999 FEW015 QNH2988INS BECMG 2306/2308 VRB05KT 9999 BKN011 QNH2986INS TEMPO 2309/2315 BKN009 FM231630 24008KT 9999 FEW015 SCT150 QNH2985INS T29/2221Z T21/2312Z
NOTAMs
Click for the latest NOTAMs
NOTAMs are issued by the DoD/FAA and will open in a separate window not controlled by AirNav.

 

 
 

Would you like to see your business listed on this page?

 If your business provides an interesting product or service to pilots, flight crews, aircraft, or users of the Warner Springs Gliderport, you should consider listing it here.  To start the listing process, click on the button below
 
Add a business
 

Other Pages about Warner Springs Gliderport

www.agcsc.org/warner_springs_info.html
 
Update a link
 
Copyright © AirNav, LLC. All rights reserved. Privacy Policy  Contact